Corona, CA (92877)

11:11 AM PDT on May 24, 2015 (GMT -0700)
Corona, ca | | Change Station
CLOSE
Current Station
Personal Weather Station
Location: Corona, CA
Elevation: 732 ft
Nearby Weather Stations

Elev 732 ft 33.87 °N, 117.59 °W | Updated 1 second ago

Partly Cloudy
Partly Cloudy
65.3 °F
Feels Like 65.3 °F
N
8.7
Wind Variable Wind from West
Gusts 9.8 mph

Today
High -- | Low -- °F
--% Chance of Precip.
Yesterday
High -- | Low -- °F
Precip. -- in
5:43 AM 7:50 PM
Waxing Crescent, 41% visible
Pressure 30.01 in
Visibility 10.0 miles
Clouds Few 2900 ft
Dew Point 52 °F
Humidity 63%
Rainfall 0.00 in
Snow Depth Not available.
UV 4.0 out of 12
Pollen 4.70 out of 12
Air Quality Not available.
Flu Activity Sporadic
METAR KAJO 241756Z AUTO 30007KT 10SM FEW029 20/11 A3002 RMK AO2 50000 T02000111 10200 20144 SLP160 $

More Conditions Fewer Conditions

Pressure 30.01 in
Visibility 10.0 miles
Clouds Few 2900 ft
Dew Point 52 °F
Humidity 63%
Rainfall 0.00 in
Snow Depth Not available.
UV 4.0 out of 12
Pollen 4.70 out of 12
Air Quality Not available.
Flu Activity Sporadic
METAR KAJO 241756Z AUTO 30007KT 10SM FEW029 20/11 A3002 RMK AO2 50000 T02000111 10200 20144 SLP160 $

More Conditions Fewer Conditions

10-Day Weather Forecast

Almanac

Astronomy

May. 24, 2015 Rise Set
Actual Time
Civil Twilight
Nautical Twilight
Astronomical Twilight
Moon
Length of Visible Light
Length of Day
Tomorrow will be .
, % of the Moon is Illuminated

Today's Extremes

State Highs State Lows

Community

WunderPhotos

Upload Photos

1,823,817 photos uploaded!

WunderBlogs® & News

Nearby

Air Quality

  Air Quality AQ Index Pollutant
Not available.

Snow Depth

Station Depth Elevation

Earthquake Activity

City Distance Mag. Time & Date
Minimum magnitude displayed is 2.5.

Coastal Water Temperatures

Place Temperature

Stations

Nearby Weather Stations

Station Location Temp. Windchill Dew Point Humidity Wind Precip. Elev Updated Type